createdAt,value
2023-03-26T00:00:27.112Z,1.80
2023-03-26T00:03:20.646Z,1.77
2023-03-26T00:06:03.466Z,2.35
2023-03-26T00:08:34.788Z,2.10
2023-03-26T00:11:06.481Z,1.90
2023-03-26T00:13:38.969Z,2.47
2023-03-26T00:16:10.967Z,2.00
2023-03-26T00:18:42.729Z,1.60
2023-03-26T00:21:17.223Z,2.17
2023-03-26T00:23:49.237Z,2.75
2023-03-26T00:26:19.799Z,2.55
2023-03-26T00:28:52.155Z,2.88
2023-03-26T00:31:22.906Z,2.50
2023-03-26T00:33:55.849Z,2.97
2023-03-26T00:36:28.398Z,2.10
2023-03-26T00:38:59.200Z,2.00
2023-03-26T00:41:31.177Z,1.80
2023-03-26T00:44:03.474Z,2.08
2023-03-26T00:46:34.119Z,1.88
2023-03-26T00:49:06.073Z,1.77
2023-03-26T00:51:37.457Z,1.80
2023-03-26T00:54:09.007Z,1.80
2023-03-26T00:56:40.160Z,1.77
2023-03-26T00:59:12.473Z,2.00
2023-03-26T01:01:44.859Z,2.13
2023-03-26T01:04:31.214Z,2.00
2023-03-26T01:07:11.075Z,1.88
2023-03-26T01:09:50.506Z,2.67
2023-03-26T01:12:25.348Z,2.38
2023-03-26T01:15:04.097Z,2.60
2023-03-26T01:17:35.221Z,2.05
2023-03-26T01:20:17.246Z,2.72
2023-03-26T01:22:54.484Z,2.47
2023-03-26T01:25:33.841Z,1.95
2023-03-26T01:28:08.892Z,1.55
2023-03-26T01:30:49.699Z,2.13
2023-03-26T01:33:30.354Z,1.75
2023-03-26T01:36:07.492Z,2.22
2023-03-26T01:38:46.946Z,2.45
2023-03-26T01:41:24.330Z,2.20
2023-03-26T01:44:01.938Z,2.55
2023-03-26T01:46:36.440Z,2.30
2023-03-26T01:49:13.297Z,2.53
2023-03-26T01:51:45.116Z,2.17
2023-03-26T01:54:21.292Z,2.15
2023-03-26T01:57:11.427Z,1.88
2023-03-26T01:59:59.713Z,1.83
2023-03-26T02:02:39.975Z,1.77
2023-03-26T02:05:18.149Z,1.92
2023-03-26T02:07:54.229Z,1.90
2023-03-26T02:10:28.850Z,2.17
2023-03-26T02:13:02.106Z,2.40
2023-03-26T02:15:32.676Z,1.90
2023-03-26T02:18:04.148Z,2.67
2023-03-26T02:20:34.748Z,2.60
2023-03-26T02:23:06.845Z,2.50
2023-03-26T02:25:40.001Z,2.47
2023-03-26T02:28:12.367Z,2.95
2023-03-26T02:30:43.465Z,3.28
2023-03-26T02:33:15.501Z,2.65
2023-03-26T02:35:46.149Z,2.72
2023-03-26T02:38:17.006Z,2.15
2023-03-26T02:40:47.630Z,2.10
2023-03-26T02:43:20.512Z,3.03
2023-03-26T02:45:51.204Z,2.15
2023-03-26T02:48:45.279Z,2.00
2023-03-26T02:51:21.708Z,2.33
2023-03-26T02:54:12.709Z,2.22
2023-03-26T02:57:21.949Z,0.95
2023-03-26T03:00:16.923Z,1.35
2023-03-26T03:03:07.600Z,1.00
2023-03-26T03:05:59.234Z,0.90
2023-03-26T03:08:37.190Z,0.43
2023-03-26T03:11:14.818Z,0.60
2023-03-26T03:13:53.513Z,0.60
2023-03-26T03:16:28.904Z,0.40
2023-03-26T03:19:01.987Z,1.00
2023-03-26T03:21:43.921Z,1.17
2023-03-26T03:24:18.408Z,0.60
2023-03-26T03:26:55.152Z,0.80
2023-03-26T03:29:48.989Z,0.80
2023-03-26T03:32:40.214Z,0.60
2023-03-26T03:35:11.210Z,1.33
2023-03-26T03:37:43.554Z,0.90
2023-03-26T03:40:15.114Z,1.25
2023-03-26T03:42:47.540Z,1.17
2023-03-26T03:45:25.555Z,1.15
2023-03-26T03:48:13.654Z,1.10
2023-03-26T03:50:47.672Z,0.93
2023-03-26T03:53:30.551Z,1.23
2023-03-26T03:56:04.885Z,1.27
2023-03-26T03:59:09.030Z,1.25
2023-03-26T04:01:43.558Z,1.77
2023-03-26T04:04:25.855Z,1.33
2023-03-26T04:07:17.238Z,1.95
2023-03-26T04:10:18.581Z,2.15
2023-03-26T04:13:12.338Z,1.60
2023-03-26T04:15:58.875Z,1.23
2023-03-26T04:18:30.448Z,1.40
2023-03-26T04:21:08.674Z,1.55
2023-03-26T04:23:40.079Z,1.45
2023-03-26T04:26:22.983Z,0.90
2023-03-26T04:29:18.356Z,0.50
2023-03-26T04:32:06.596Z,1.20
2023-03-26T04:34:37.260Z,0.88
2023-03-26T04:37:26.725Z,0.45
2023-03-26T04:40:13.936Z,0.90
2023-03-26T04:43:04.400Z,0.45
2023-03-26T04:45:54.442Z,0.80
2023-03-26T04:48:28.701Z,0.50
2023-03-26T04:50:59.715Z,0.70
2023-03-26T04:53:32.290Z,0.47
2023-03-26T04:56:15.559Z,0.60
2023-03-26T04:59:47.365Z,0.73
2023-03-26T05:02:19.044Z,0.63
2023-03-26T05:04:54.356Z,0.70
2023-03-26T05:07:26.532Z,0.85
2023-03-26T05:10:03.587Z,0.50
2023-03-26T05:12:56.566Z,0.50
2023-03-26T05:15:31.268Z,1.38
2023-03-26T05:18:20.174Z,0.95
2023-03-26T05:20:54.798Z,0.82
2023-03-26T05:23:25.840Z,0.95
2023-03-26T05:26:15.799Z,1.40
2023-03-26T05:28:46.318Z,0.63
2023-03-26T05:31:40.117Z,0.50
2023-03-26T05:34:10.627Z,0.65
2023-03-26T05:36:42.646Z,0.60
2023-03-26T05:39:41.392Z,0.57
2023-03-26T05:42:40.639Z,0.85
2023-03-26T05:45:29.732Z,0.70
2023-03-26T05:48:02.956Z,0.98
2023-03-26T05:50:33.515Z,0.20
2023-03-26T05:53:04.807Z,0.57
2023-03-26T05:55:59.235Z,0.52
2023-03-26T05:58:51.928Z,0.47
2023-03-26T06:01:45.510Z,0.80
2023-03-26T06:04:17.374Z,0.57
2023-03-26T06:06:58.741Z,0.60
2023-03-26T06:09:30.369Z,0.60
2023-03-26T06:12:00.942Z,0.35
2023-03-26T06:14:37.594Z,0.40
2023-03-26T06:17:22.678Z,0.40
2023-03-26T06:20:18.142Z,0.52
2023-03-26T06:22:51.079Z,0.70
2023-03-26T06:25:31.991Z,0.88
2023-03-26T06:28:31.921Z,0.80
2023-03-26T06:31:12.481Z,0.60
2023-03-26T06:33:48.881Z,0.93
2023-03-26T06:36:20.045Z,0.22
2023-03-26T06:38:53.131Z,0.73
2023-03-26T06:41:24.634Z,1.30
2023-03-26T06:44:18.754Z,0.73
2023-03-26T06:47:14.202Z,1.27
2023-03-26T06:49:53.797Z,0.90
2023-03-26T06:52:42.023Z,0.73
2023-03-26T06:55:28.810Z,0.82
2023-03-26T06:58:19.283Z,1.10
2023-03-26T07:01:08.850Z,0.70
2023-03-26T07:04:00.296Z,0.43
2023-03-26T07:06:49.491Z,0.85
2023-03-26T07:09:59.278Z,0.73
2023-03-26T07:12:58.106Z,0.65
2023-03-26T07:15:49.509Z,1.10
2023-03-26T07:18:33.608Z,0.95
2023-03-26T07:21:10.526Z,1.00
2023-03-26T07:23:42.022Z,0.75
2023-03-26T07:26:44.353Z,0.85
2023-03-26T07:29:35.315Z,1.00
2023-03-26T07:32:22.793Z,0.80
2023-03-26T07:35:31.812Z,0.73
2023-03-26T07:38:50.366Z,0.60
2023-03-26T07:41:41.439Z,0.47
2023-03-26T07:44:52.723Z,0.60
2023-03-26T07:47:45.387Z,0.85
2023-03-26T07:50:48.307Z,0.80
2023-03-26T07:53:53.742Z,1.20
2023-03-26T07:56:50.605Z,0.88
2023-03-26T07:59:58.986Z,1.15
2023-03-26T08:03:29.149Z,0.68
2023-03-26T08:06:37.436Z,0.80
2023-03-26T08:09:30.073Z,1.02
2023-03-26T08:12:48.590Z,1.27
2023-03-26T08:15:29.451Z,1.50
2023-03-26T08:18:08.226Z,0.70
2023-03-26T08:20:47.979Z,1.13
2023-03-26T08:23:29.245Z,1.38
2023-03-26T08:26:10.676Z,1.20
2023-03-26T08:28:59.496Z,1.70
2023-03-26T08:31:36.970Z,1.30
2023-03-26T08:34:10.744Z,1.20
2023-03-26T08:36:41.820Z,2.00
2023-03-26T08:39:12.190Z,1.73
2023-03-26T08:42:34.810Z,1.20
2023-03-26T08:45:47.484Z,2.28
2023-03-26T08:49:29.187Z,2.00
2023-03-26T08:52:43.985Z,2.30
2023-03-26T08:55:45.030Z,1.17
2023-03-26T08:59:29.438Z,1.98
2023-03-26T09:02:48.532Z,0.73
2023-03-26T09:06:12.816Z,1.60
2023-03-26T09:09:35.502Z,0.68
2023-03-26T09:12:52.647Z,0.57
2023-03-26T09:16:25.944Z,0.32
2023-03-26T09:19:38.596Z,0.47
2023-03-26T09:23:05.777Z,0.20
2023-03-26T09:26:17.873Z,0.43
2023-03-26T09:29:24.386Z,0.75
2023-03-26T09:33:06.696Z,0.70
2023-03-26T09:36:02.787Z,1.05
2023-03-26T09:38:46.287Z,1.00
2023-03-26T09:41:32.538Z,0.50
2023-03-26T09:44:46.738Z,1.05
2023-03-26T09:50:52.791Z,0.98
2023-03-26T09:54:02.561Z,1.13
2023-03-26T09:56:47.467Z,1.35
2023-03-26T09:59:55.541Z,1.10
2023-03-26T10:02:47.805Z,1.20
2023-03-26T10:06:04.079Z,1.35
2023-03-26T10:09:03.171Z,2.25
2023-03-26T10:11:57.659Z,1.10
2023-03-26T10:14:38.450Z,1.33
2023-03-26T10:17:32.054Z,1.52
2023-03-26T10:20:25.466Z,2.08
2023-03-26T10:23:24.208Z,1.30
2023-03-26T10:26:18.766Z,1.58
2023-03-26T10:29:21.877Z,1.60
2023-03-26T10:31:57.791Z,1.65
2023-03-26T10:34:56.202Z,1.55
2023-03-26T10:37:45.906Z,1.30
2023-03-26T10:40:28.706Z,1.58
2023-03-26T10:43:49.715Z,1.48
2023-03-26T10:47:21.467Z,1.52
2023-03-26T10:50:23.307Z,1.80
2023-03-26T10:53:02.018Z,2.03
2023-03-26T10:55:39.200Z,1.90
2023-03-26T10:58:19.760Z,3.22
2023-03-26T11:00:59.045Z,2.20
2023-03-26T11:03:52.167Z,2.67
2023-03-26T11:06:43.479Z,2.60
2023-03-26T11:09:32.634Z,2.50
2023-03-26T11:12:26.647Z,3.38
2023-03-26T11:15:19.205Z,2.85
2023-03-26T11:18:04.988Z,2.30
2023-03-26T11:20:41.552Z,2.35
2023-03-26T11:23:34.278Z,2.20
2023-03-26T11:26:16.986Z,3.30
2023-03-26T11:29:33.628Z,2.80
2023-03-26T11:32:11.869Z,1.80
2023-03-26T11:34:47.413Z,2.47
2023-03-26T11:37:27.571Z,1.65
2023-03-26T11:40:00.841Z,2.13
2023-03-26T11:42:31.782Z,1.17
2023-03-26T11:45:08.149Z,1.10
2023-03-26T11:47:47.900Z,0.77
2023-03-26T11:50:23.867Z,2.15
2023-03-26T11:53:01.407Z,1.35
2023-03-26T11:55:33.040Z,1.60
2023-03-26T12:00:40.352Z,1.40
2023-03-26T12:03:17.603Z,1.83
2023-03-26T12:05:53.712Z,1.17
2023-03-26T12:08:33.836Z,1.77
2023-03-26T12:11:12.379Z,1.42
2023-03-26T12:13:51.995Z,1.67
2023-03-26T12:16:25.029Z,1.48
2023-03-26T12:21:47.778Z,1.30
2023-03-26T12:24:30.648Z,1.52
2023-03-26T12:27:03.530Z,1.75
2023-03-26T12:32:14.587Z,1.38
2023-03-26T12:34:45.994Z,1.10
2023-03-26T12:37:38.742Z,1.08
2023-03-26T12:40:30.179Z,1.53
2023-03-26T12:44:46.780Z,1.08
2023-03-26T12:47:54.138Z,1.38
2023-03-26T12:48:51.904Z,1.27
2023-03-26T12:51:42.029Z,1.05
2023-03-26T12:54:37.073Z,1.20
2023-03-26T12:57:24.379Z,1.20
2023-03-26T13:00:13.976Z,1.20
2023-03-26T13:03:19.585Z,1.10
2023-03-26T13:06:13.976Z,1.13
2023-03-26T13:09:08.816Z,1.10
2023-03-26T13:11:53.519Z,1.05
2023-03-26T13:14:51.577Z,1.20
2023-03-26T13:17:33.250Z,0.98
2023-03-26T13:20:12.848Z,0.88
2023-03-26T13:22:57.077Z,0.75
2023-03-26T13:25:40.226Z,0.98
2023-03-26T13:28:27.539Z,1.13
2023-03-26T13:31:11.549Z,1.08
2023-03-26T13:33:51.643Z,1.23
2023-03-26T13:36:32.914Z,0.95
2023-03-26T13:39:27.621Z,1.33
2023-03-26T13:42:20.303Z,1.30
2023-03-26T13:45:05.261Z,1.52
2023-03-26T13:47:42.846Z,1.10
2023-03-26T13:50:25.237Z,0.98
2023-03-26T13:53:01.774Z,1.53
2023-03-26T13:55:37.619Z,0.73
2023-03-26T13:58:18.401Z,0.90
2023-03-26T14:00:59.554Z,1.42
2023-03-26T14:03:45.591Z,1.50
2023-03-26T14:06:34.132Z,0.90
2023-03-26T14:09:13.889Z,1.30
2023-03-26T14:12:02.678Z,1.00
2023-03-26T14:14:46.854Z,0.47
2023-03-26T14:17:26.770Z,0.77
2023-03-26T14:20:57.596Z,1.13
2023-03-26T14:23:51.163Z,1.20
2023-03-26T14:26:48.302Z,0.77
2023-03-26T14:29:56.529Z,0.40
2023-03-26T14:32:42.044Z,0.73
2023-03-26T14:35:35.842Z,0.80
2023-03-26T14:38:47.820Z,0.75
2023-03-26T14:41:26.100Z,0.70
2023-03-26T14:44:57.721Z,0.50
2023-03-26T14:47:31.950Z,0.60
2023-03-26T14:50:42.846Z,0.80
2023-03-26T14:53:25.759Z,1.33
2023-03-26T14:56:34.125Z,1.20
2023-03-26T15:00:16.034Z,1.25
2023-03-26T15:04:01.739Z,0.90
2023-03-26T15:10:56.609Z,1.67
2023-03-26T15:14:02.273Z,0.95
2023-03-26T15:17:36.907Z,1.33
2023-03-26T15:21:06.962Z,1.40
2023-03-26T15:24:27.791Z,1.20
2023-03-26T15:27:34.916Z,1.55
2023-03-26T15:34:45.519Z,2.10
2023-03-26T15:38:09.468Z,1.20
2023-03-26T15:41:16.954Z,1.70
2023-03-26T15:44:29.186Z,2.58
2023-03-26T15:47:27.400Z,1.85
2023-03-26T15:50:17.380Z,1.98
2023-03-26T15:52:56.167Z,2.00
2023-03-26T15:55:36.316Z,2.13
2023-03-26T15:58:17.119Z,3.20
2023-03-26T16:01:02.892Z,3.80
2023-03-26T16:03:43.268Z,3.05
2023-03-26T16:06:36.873Z,2.13
2023-03-26T16:09:35.440Z,1.58
2023-03-26T16:12:30.526Z,2.03
2023-03-26T16:15:29.689Z,1.42
2023-03-26T16:18:33.585Z,1.30
2023-03-26T16:21:42.416Z,1.87
2023-03-26T16:24:29.175Z,1.50
2023-03-26T16:27:32.176Z,2.17
2023-03-26T16:30:31.817Z,2.43
2023-03-26T16:33:15.757Z,2.45
2023-03-26T16:36:26.076Z,4.93
2023-03-26T16:39:17.325Z,5.47
2023-03-26T16:42:12.428Z,4.72
2023-03-26T16:44:50.202Z,4.20
2023-03-26T16:47:32.248Z,3.70
2023-03-26T16:50:15.523Z,2.80
2023-03-26T16:55:34.652Z,2.80
2023-03-26T16:58:24.269Z,3.35
2023-03-26T17:01:09.091Z,2.63
2023-03-26T17:03:53.350Z,3.03
2023-03-26T17:06:45.880Z,3.85
2023-03-26T17:09:30.359Z,5.35
2023-03-26T17:12:10.636Z,6.25
2023-03-26T17:14:56.849Z,11.43
2023-03-26T17:17:58.910Z,13.40
2023-03-26T17:20:38.966Z,12.05
2023-03-26T17:23:29.822Z,15.13
2023-03-26T17:26:18.040Z,20.48
2023-03-26T17:29:17.875Z,19.23
2023-03-26T17:31:59.569Z,18.48
2023-03-26T17:34:53.870Z,16.95
2023-03-26T17:37:45.926Z,16.45
2023-03-26T17:40:56.237Z,19.20
2023-03-26T17:43:46.286Z,19.60
2023-03-26T17:46:37.638Z,27.80
2023-03-26T17:49:20.203Z,32.58
2023-03-26T17:51:54.787Z,30.17
2023-03-26T17:54:32.885Z,31.95
2023-03-26T17:57:08.570Z,35.78
2023-03-26T17:59:41.837Z,33.67
2023-03-26T18:02:17.790Z,36.63
2023-03-26T18:04:54.969Z,40.28
2023-03-26T18:08:19.179Z,35.95
2023-03-26T18:11:52.907Z,25.05
2023-03-26T18:15:29.954Z,18.65
2023-03-26T18:18:11.392Z,21.15
2023-03-26T18:20:47.149Z,33.67
2023-03-26T18:23:27.805Z,25.15
2023-03-26T18:26:11.147Z,22.60
2023-03-26T18:31:20.574Z,11.93
2023-03-26T18:33:59.398Z,12.65
2023-03-26T18:36:33.236Z,12.52
2023-03-26T18:39:06.513Z,11.95
2023-03-26T18:41:41.718Z,11.18
2023-03-26T18:44:19.050Z,11.27
2023-03-26T18:46:49.694Z,11.98
2023-03-26T18:49:21.795Z,11.23
2023-03-26T18:51:57.447Z,10.98
2023-03-26T18:54:35.232Z,12.35
2023-03-26T18:57:15.862Z,10.73
2023-03-26T18:59:50.730Z,9.60
2023-03-26T19:02:23.200Z,9.85
2023-03-26T19:04:54.788Z,9.93
2023-03-26T19:07:28.255Z,10.52
2023-03-26T19:10:03.056Z,11.20
2023-03-26T19:12:35.945Z,9.73
2023-03-26T19:15:12.707Z,13.27
2023-03-26T19:17:47.414Z,15.73
2023-03-26T19:20:24.084Z,17.67
2023-03-26T19:22:58.219Z,17.83
2023-03-26T19:25:34.609Z,10.57
2023-03-26T19:28:06.766Z,9.13
2023-03-26T19:30:43.308Z,8.60
2023-03-26T19:33:18.536Z,7.50
2023-03-26T19:36:01.407Z,6.82
2023-03-26T19:38:44.318Z,7.50
2023-03-26T19:41:23.374Z,7.10
2023-03-26T19:43:58.163Z,6.85
2023-03-26T19:46:34.065Z,6.55
2023-03-26T19:49:31.780Z,7.28
2023-03-26T19:52:15.034Z,6.75
2023-03-26T19:55:05.087Z,6.55
2023-03-26T19:57:38.070Z,5.97
2023-03-26T20:00:14.644Z,6.67
2023-03-26T20:02:47.388Z,6.15
2023-03-26T20:05:25.469Z,6.80
2023-03-26T20:07:59.823Z,7.85
2023-03-26T20:10:31.964Z,9.75
2023-03-26T20:13:02.739Z,10.43
2023-03-26T20:15:35.957Z,10.43
2023-03-26T20:20:37.171Z,9.35
2023-03-26T20:23:17.805Z,9.60
2023-03-26T20:25:53.940Z,10.50
2023-03-26T20:28:24.935Z,9.40
2023-03-26T20:30:55.642Z,8.40
2023-03-26T20:33:28.238Z,7.80
2023-03-26T20:36:00.528Z,7.70
2023-03-26T20:38:38.948Z,6.75
2023-03-26T20:41:17.678Z,8.68
2023-03-26T20:43:48.689Z,6.03
2023-03-26T20:46:22.559Z,6.45
2023-03-26T20:48:56.500Z,6.20
2023-03-26T20:51:28.815Z,6.45
2023-03-26T20:54:00.761Z,6.00
2023-03-26T20:56:35.332Z,7.55
2023-03-26T20:59:10.922Z,7.18
2023-03-26T21:01:42.468Z,6.43
2023-03-26T21:04:13.357Z,6.40
2023-03-26T21:06:45.562Z,7.20
2023-03-26T21:09:23.828Z,5.80
2023-03-26T21:12:03.135Z,5.55
2023-03-26T21:14:39.394Z,5.45
2023-03-26T21:17:17.115Z,5.55
2023-03-26T21:19:49.600Z,5.97
2023-03-26T21:22:32.000Z,5.55
2023-03-26T21:25:18.562Z,5.70
2023-03-26T21:28:07.200Z,6.38
2023-03-26T21:30:38.838Z,7.75
2023-03-26T21:33:09.486Z,7.28
2023-03-26T21:35:42.310Z,8.15
2023-03-26T21:38:14.266Z,7.93
2023-03-26T21:40:52.975Z,7.10
2023-03-26T21:43:30.646Z,7.47
2023-03-26T21:46:02.328Z,7.57
2023-03-26T21:48:33.510Z,6.75
2023-03-26T21:51:06.764Z,7.63
2023-03-26T21:53:38.149Z,6.82
2023-03-26T21:56:28.532Z,7.35
2023-03-26T21:59:09.009Z,7.45
2023-03-26T22:01:54.027Z,7.40
2023-03-26T22:04:37.177Z,7.45
2023-03-26T22:07:15.011Z,6.38
2023-03-26T22:09:46.515Z,6.47
2023-03-26T22:12:17.840Z,5.70
2023-03-26T22:14:49.599Z,5.20
2023-03-26T22:17:21.985Z,5.68
2023-03-26T22:19:52.452Z,4.97
2023-03-26T22:22:26.233Z,5.00
2023-03-26T22:24:56.928Z,3.95
2023-03-26T22:27:27.916Z,3.30
2023-03-26T22:30:00.583Z,4.00
2023-03-26T22:32:32.875Z,4.03
2023-03-26T22:35:04.993Z,3.88
2023-03-26T22:37:37.247Z,3.90
2023-03-26T22:40:11.979Z,4.22
2023-03-26T22:42:43.277Z,3.65
2023-03-26T22:45:15.523Z,3.83
2023-03-26T22:47:46.390Z,4.63
2023-03-26T22:50:16.971Z,3.90
2023-03-26T22:52:47.894Z,4.22
2023-03-26T22:55:28.369Z,4.15
2023-03-26T22:58:00.200Z,4.40
2023-03-26T23:00:32.517Z,3.72
2023-03-26T23:03:04.656Z,3.80
2023-03-26T23:05:35.563Z,4.90
2023-03-26T23:08:07.765Z,4.05
2023-03-26T23:10:38.724Z,3.88
2023-03-26T23:13:09.433Z,4.47
2023-03-26T23:15:41.706Z,4.65
2023-03-26T23:18:12.891Z,4.27
2023-03-26T23:20:43.396Z,4.03
2023-03-26T23:23:14.194Z,4.35
2023-03-26T23:25:46.870Z,4.20
2023-03-26T23:28:17.797Z,4.03
2023-03-26T23:30:53.602Z,4.35
2023-03-26T23:33:27.913Z,3.83
2023-03-26T23:36:00.380Z,4.30
2023-03-26T23:38:43.071Z,4.47
2023-03-26T23:43:53.493Z,4.28
2023-03-26T23:46:30.462Z,4.95
2023-03-26T23:49:03.601Z,5.10
2023-03-26T23:51:36.151Z,5.85
2023-03-26T23:54:08.808Z,5.75
2023-03-26T23:56:39.184Z,5.45
2023-03-26T23:59:10.104Z,6.85
